Create Tblcommutelog Verified Points Advance Search
| # | Trip ID | Id Commuter | Trip Date | Trip Num | Current Lat | Current Lng | Delta Distance | Current Time | Activity | Activity Confidence | Current Speed | |
|---|---|---|---|---|---|---|---|---|---|---|---|---|
| 69261 | 250512_780857_16651820_1715 | 780857 | (not set) | (not set) | 38.90383012097 | -77.053643563506 | 0.3953 | 2025-05-12 21:28:35.207 | still | 100 | 3.3930279757168 | |
| 69262 | 250512_778451_16646089_1706 | 778451 | (not set) | (not set) | 38.948635111746 | -77.005302792471 | 4.4112 | 2025-05-12 21:28:37.361 | in_vehicle | 100 | -0.44703925898772 | |
| 69263 | 250512_765177_16632089_1701 | 765177 | (not set) | (not set) | 39.663875803672 | -76.887009754619 | 8.8258 | 2025-05-12 21:28:38.303 | in_vehicle | 100 | 3.3662056201776 | |
| 69264 | 250512_738572_16603589_1657 | 738572 | (not set) | (not set) | 39.019350400636 | -76.480219141392 | 29.0966 | 2025-05-12 21:28:39.326 | in_vehicle | 100 | 15.047341457527 | |
| 69265 | 250512_108110_1016219_1657 | 108110 | (not set) | (not set) | 39.029188072345 | -77.104393942353 | 11.369 | 2025-05-12 21:28:42.093 | in_vehicle | 100 | 7.1794504993429 | |
| 69266 | 250512_761201_16627990_1636 | 761201 | (not set) | (not set) | 38.865806247363 | -77.105847574961 | 6.5973 | 2025-05-12 21:28:43.286 | in_vehicle | 100 | 2.8744624352911 | |
| 69267 | 250512_781299_16648975_1701 | 781299 | (not set) | (not set) | 38.981744158344 | -77.094631780717 | 6.1293 | 2025-05-12 21:28:44.691 | still | 100 | -0.44703925898772 | |
| 69268 | 250512_783088_16650810_1719 | 783088 | (not set) | (not set) | 38.865245346234 | -77.055013711428 | 0.1703 | 2025-05-12 21:28:46.295 | still | 33 | -0.44703925898772 | |
| 69269 | 250512_783088_16650810_1719 | 783088 | (not set) | (not set) | 38.868297024904 | -77.054091122011 | 0.2032 | 2025-05-12 21:28:46.325 | still | 33 | 0 | |
| 69270 | 250512_774046_16641445_1642 | 774046 | (not set) | (not set) | 39.126969426907 | -77.173484545273 | 19.1979 | 2025-05-12 21:28:49.267 | in_vehicle | 100 | 0.98795676236287 | |
| 69271 | 250512_780857_16651820_1715 | 780857 | (not set) | (not set) | 38.904405126215 | -77.055283157102 | 0.4922 | 2025-05-12 21:28:51.242 | still | 100 | 4.3765143454898 | |
| 69272 | 250512_738572_16603589_1657 | 738572 | (not set) | (not set) | 39.021227783276 | -76.476262237036 | 29.3457 | 2025-05-12 21:28:51.244 | in_vehicle | 100 | 14.850644183572 | |
| 69273 | 250512_781944_16649637_1716 | 781944 | (not set) | (not set) | 38.888920155026 | -77.025079299391 | 0.4286 | 2025-05-12 21:28:55.242 | on_foot | 100 | 0.60797339222331 | |
| 69274 | 250512_784617_16652591_1628 | 784617 | (not set) | (not set) | 38.713406455068 | -77.214897894451 | 19.5389 | 2025-05-12 21:28:55.789 | still | 33 | -0.44703925898772 | |
| 69275 | 250512_784617_16652591_1628 | 784617 | (not set) | (not set) | 38.714788998652 | -77.214415641926 | 19.5389 | 2025-05-12 21:28:55.791 | still | 33 | 0 | |
| 69276 | 250512_774046_16641445_1642 | 774046 | (not set) | (not set) | 39.126565916504 | -77.173883959851 | 19.2503 | 2025-05-12 21:28:56.28 | in_vehicle | 100 | 5.7980991890708 | |
| 69277 | 250512_784713_16652709_1717 | 784713 | (not set) | (not set) | 39.322790825949 | -76.627944081147 | 1.6743 | 2025-05-12 21:28:56.441 | in_vehicle | 100 | 2.6062388798984 | |
| 69278 | 250512_780998_16648672_1657 | 780998 | (not set) | (not set) | 38.944957233312 | -77.123230769557 | 6.2866 | 2025-05-12 21:28:57.671 | in_vehicle | 100 | 3.9160639087325 | |
| 69279 | 250512_779684_16647372_1633 | 779684 | (not set) | (not set) | 39.36852165357 | -77.017507098817 | 25.622 | 2025-05-12 21:28:57.798 | in_vehicle | 100 | -0.44703925898772 | |
| 69280 | 250512_731669_16595792_1649 | 731669 | (not set) | (not set) | 38.831106430574 | -77.047069934597 | 6.0932 | 2025-05-12 21:29:00.151 | in_vehicle | 100 | 8.4713939578174 |